Time;durP1;ratioP1;P1;durP2;ratioP2;P2;SDS_P1;SDS_P2;PMS_P1;PMS_P2;Temp;Humidity;BMP_temperature;BMP_pressure;BME280_temperature;BME280_humidity;BME280_pressure;Samples;Min_cycle;Max_cycle;Signal;HPM_P1;HPM_P2
2023/11/10 00:02:02;;;;;;;17.80;10.10;;;;;;;5.77;77.78;99358.95;102968;1257;137710;-74
2023/11/10 00:04:50;;;;;;;18.70;10.40;;;;;;;5.71;77.83;99350.96;103254;1257;110188;-75
2023/11/10 00:07:39;;;;;;;13.40;9.60;;;;;;;5.72;78.10;99358.02;102950;1261;107494;-74
2023/11/10 00:10:17;;;;;;;16.20;9.90;;;;;;;5.72;78.05;99356.80;103529;1256;96555;-74
2023/11/10 00:12:50;;;;;;;18.50;10.50;;;;;;;5.72;78.06;99355.08;103341;1255;109145;-74
2023/11/10 00:15:27;;;;;;;13.40;10.00;;;;;;;5.71;78.01;99349.41;103220;1259;137700;-75
2023/11/10 00:17:57;;;;;;;15.90;10.60;;;;;;;5.69;78.00;99346.38;103845;1257;109875;-75
2023/11/10 00:20:44;;;;;;;16.20;9.40;;;;;;;5.65;78.03;99339.93;103479;1256;137538;-74
2023/11/10 00:23:14;;;;;;;15.50;9.40;;;;;;;5.64;77.84;99337.73;103382;1256;96459;-74
2023/11/10 00:26:02;;;;;;;15.50;9.70;;;;;;;5.64;78.16;99341.34;103206;1257;138385;-75
2023/11/10 00:28:31;;;;;;;16.80;10.00;;;;;;;5.66;77.98;99335.43;103349;1256;96477;-75
2023/11/10 00:31:10;;;;;;;15.80;9.70;;;;;;;5.67;78.03;99332.30;103453;1255;109915;-74
2023/11/10 00:33:36;;;;;;;20.00;10.50;;;;;;;5.66;77.93;99325.77;103146;1256;137585;-73
2023/11/10 00:36:06;;;;;;;16.00;9.90;;;;;;;5.65;77.75;99327.53;103099;1256;96893;-74
2023/11/10 00:38:33;;;;;;;17.70;9.70;;;;;;;5.60;77.96;99321.30;103215;1256;137521;-75
2023/11/10 00:41:00;;;;;;;12.90;9.40;;;;;;;5.58;78.07;99324.27;103287;1258;96342;-74
2023/11/10 00:43:28;;;;;;;14.40;8.90;;;;;;;5.57;78.07;99315.69;103347;1255;109955;-74
2023/11/10 00:45:55;;;;;;;16.90;8.90;;;;;;;5.58;78.11;99314.46;103063;1256;138426;-75
2023/11/10 00:48:23;;;;;;;14.40;9.90;;;;;;;5.59;78.30;99311.83;103191;1256;96543;-74
2023/11/10 00:50:52;;;;;;;15.90;10.30;;;;;;;5.60;78.16;99305.08;103083;1256;137448;-74
2023/11/10 00:53:30;;;;;;;15.10;10.20;;;;;;;5.60;78.22;99299.56;103336;1259;96883;-74
2023/11/10 00:55:59;;;;;;;14.50;10.00;;;;;;;5.58;78.08;99305.30;103372;1257;137559;-74
2023/11/10 00:58:27;;;;;;;15.70;9.60;;;;;;;5.54;78.41;99309.02;103325;1256;106902;-74
2023/11/10 01:00:57;;;;;;;18.70;10.00;;;;;;;5.51;78.33;99300.81;103615;1255;96331;-74
2023/11/10 01:03:24;;;;;;;12.90;8.70;;;;;;;5.54;78.64;99299.35;103021;1259;138097;-74
2023/11/10 01:05:51;;;;;;;14.60;9.70;;;;;;;5.57;78.58;99294.98;103263;1257;96451;-73
2023/11/10 01:08:19;;;;;;;13.70;9.50;;;;;;;5.59;78.39;99294.22;103035;1260;137893;-74
2023/11/10 01:11:05;;;;;;;;;;;;;;;5.62;78.50;99289.15;103653;1256;108512;-74
2023/11/10 01:13:41;;;;;;;17.60;10.50;;;;;;;5.62;78.54;99289.34;103070;1256;96509;-73
2023/11/10 01:16:09;;;;;;;15.80;9.30;;;;;;;5.61;78.57;99287.81;102902;1260;137874;-72
2023/11/10 01:18:48;;;;;;;16.40;8.70;;;;;;;5.62;78.42;99278.98;103267;1256;96460;-73
2023/11/10 01:21:35;;;;;;;11.60;8.30;;;;;;;5.64;78.41;99284.80;103129;1256;137893;-74
2023/11/10 01:24:13;;;;;;;14.30;9.50;;;;;;;5.68;78.39;99276.04;103345;1255;108162;-74
2023/11/10 01:26:43;;;;;;;12.70;8.70;;;;;;;5.71;78.26;99271.11;103283;1255;137915;-74
2023/11/10 01:29:20;;;;;;;13.60;8.90;;;;;;;5.73;78.21;99272.60;103251;1255;108687;-74
2023/11/10 01:32:09;;;;;;;15.40;9.20;;;;;;;5.74;78.17;99275.17;103200;1256;137497;-73
2023/11/10 01:34:36;;;;;;;16.10;9.30;;;;;;;5.73;78.15;99273.65;103384;1256;110174;-76
2023/11/10 01:37:12;;;;;;;13.00;8.20;;;;;;;5.73;78.43;99271.41;103278;1256;109038;-75
2023/11/10 01:39:40;;;;;;;15.60;7.90;;;;;;;5.73;78.46;99269.69;103158;1256;138006;-74
2023/11/10 01:42:08;;;;;;;12.10;8.00;;;;;;;5.74;78.30;99275.70;103191;1256;108125;-75
2023/11/10 01:44:36;;;;;;;14.10;8.30;;;;;;;5.79;78.46;99273.34;103242;1256;137919;-75
2023/11/10 01:47:08;;;;;;;11.90;8.00;;;;;;;5.82;78.23;99276.19;103334;1256;110681;-76
2023/11/10 01:49:44;;;;;;;15.10;8.00;;;;;;;5.83;78.26;99273.22;103604;1255;107542;-75
2023/11/10 01:52:22;;;;;;;13.30;8.40;;;;;;;5.82;78.23;99265.83;103505;1256;96873;-75
2023/11/10 01:55:02;;;;;;;18.30;8.40;;;;;;;5.81;78.28;99272.23;103360;1256;108219;-76
2023/11/10 01:57:41;;;;;;;11.80;7.60;;;;;;;5.77;78.42;99264.77;103275;1259;138006;-76
2023/11/10 02:00:30;;;;;;;12.10;8.00;;;;;;;5.77;78.33;99258.04;101836;1259;1003697;-75
2023/11/10 02:03:19;;;;;;;11.90;7.50;;;;;;;5.76;78.51;99253.05;103165;1257;138530;-75
2023/11/10 02:06:10;;;;;;;11.50;7.50;;;;;;;5.79;78.50;99251.25;103304;1256;96768;-75
2023/11/10 02:08:58;;;;;;;12.40;8.30;;;;;;;5.80;78.64;99248.64;103160;1256;137483;-75
2023/11/10 02:11:38;;;;;;;13.00;8.50;;;;;;;5.80;78.79;99244.16;103404;1255;96429;-75
2023/11/10 02:14:16;;;;;;;13.30;8.50;;;;;;;5.79;78.86;99244.20;103413;1259;137429;-75
2023/11/10 02:16:58;;;;;;;14.30;7.90;;;;;;;5.76;78.74;99247.70;103353;1255;108301;-77
2023/11/10 02:19:48;;;;;;;16.10;7.60;;;;;;;5.75;78.94;99241.37;103343;1256;96444;-77
2023/11/10 02:22:41;;;;;;;15.80;7.60;;;;;;;5.75;79.10;99235.84;103394;1256;109931;-76
2023/11/10 02:25:20;;;;;;;10.60;7.40;;;;;;;5.78;78.89;99228.16;103306;1259;96470;-76
2023/11/10 02:28:07;;;;;;;10.70;7.10;;;;;;;5.81;79.10;99226.17;103270;1256;137347;-76
2023/11/10 02:30:54;;;;;;;11.40;8.10;;;;;;;5.81;79.26;99221.52;103171;1255;109671;-77
2023/11/10 02:33:41;;;;;;;11.60;7.70;;;;;;;5.80;79.06;99222.43;103138;1256;137543;-76
2023/11/10 02:36:11;;;;;;;12.60;7.40;;;;;;;5.76;79.30;99217.69;103040;1256;108691;-77
2023/11/10 02:38:59;;;;;;;11.50;6.60;;;;;;;5.75;79.43;99216.70;103189;1257;138344;-76
2023/11/10 02:41:34;;;;;;;8.80;6.20;;;;;;;5.75;79.44;99216.54;103182;1256;110250;-76
2023/11/10 02:44:02;;;;;;;9.00;6.20;;;;;;;5.75;79.43;99216.17;103287;1255;108291;-76
2023/11/10 02:46:40;;;;;;;12.90;7.40;;;;;;;5.78;79.24;99217.81;103317;1255;96800;-77
2023/11/10 02:49:21;;;;;;;10.00;6.70;;;;;;;5.80;79.61;99217.06;103294;1256;106475;-75
2023/11/10 02:52:09;;;;;;;9.20;6.70;;;;;;;5.80;79.35;99212.23;102905;1262;137751;-75
2023/11/10 02:54:38;;;;;;;12.60;7.70;;;;;;;5.79;79.47;99215.71;102994;1259;109286;-75
2023/11/10 02:57:20;;;;;;;12.40;6.80;;;;;;;5.78;79.42;99210.41;102904;1258;137590;-74
2023/11/10 02:59:56;;;;;;;10.50;6.60;;;;;;;5.76;79.66;99210.45;103023;1259;95854;-75
2023/11/10 03:02:38;;;;;;;8.70;5.90;;;;;;;5.77;79.68;99208.36;102884;1259;138154;-76
2023/11/10 03:05:20;;;;;;;10.20;6.60;;;;;;;5.81;79.52;99209.98;103078;1262;96473;-75
2023/11/10 03:07:59;;;;;;;10.90;7.30;;;;;;;5.83;79.64;99206.45;103037;1259;110793;-76
2023/11/10 03:10:27;;;;;;;10.10;6.60;;;;;;;5.84;79.63;99210.02;102963;1263;137330;-76
2023/11/10 03:13:05;;;;;;;11.00;7.30;;;;;;;5.87;79.79;99206.85;103003;1260;96631;-75
2023/11/10 03:15:43;;;;;;;11.70;7.00;;;;;;;5.84;79.87;99204.20;102765;1259;137291;-75
2023/11/10 03:18:15;;;;;;;9.60;5.70;;;;;;;5.83;79.90;99199.04;102886;1259;96472;-75
2023/11/10 03:20:53;;;;;;;9.80;6.40;;;;;;;5.83;79.81;99192.83;102794;1259;138439;-74
2023/11/10 03:23:40;;;;;;;7.40;5.50;;;;;;;5.84;79.75;99194.33;103034;1256;109711;-74
2023/11/10 03:26:28;;;;;;;13.60;6.20;;;;;;;5.85;79.86;99197.92;103224;1256;137668;-75
2023/11/10 03:29:06;;;;;;;10.30;6.40;;;;;;;5.88;79.84;99203.37;103186;1255;107590;-75
2023/11/10 03:31:40;;;;;;;7.50;6.20;;;;;;;5.87;79.92;99197.88;103310;1256;96456;-75
2023/11/10 03:34:27;;;;;;;8.90;5.80;;;;;;;5.83;80.09;99196.08;103053;1256;137172;-76
2023/11/10 03:36:54;;;;;;;7.90;5.90;;;;;;;5.84;80.11;99198.14;103204;1256;108252;-76
2023/11/10 03:39:43;;;;;;;9.10;6.10;;;;;;;5.85;79.94;99198.64;103150;1259;138137;-76
2023/11/10 03:42:20;;;;;;;7.10;5.10;;;;;;;5.89;80.06;99199.55;103346;1259;108447;-75
2023/11/10 03:44:53;;;;;;;11.70;5.80;;;;;;;5.91;79.95;99191.91;103176;1256;137343;-75
2023/11/10 03:47:41;;;;;;;9.70;6.20;;;;;;;5.93;79.92;99190.66;103261;1259;109876;-75
2023/11/10 03:50:28;;;;;;;8.40;5.60;;;;;;;5.92;79.90;99179.45;103223;1256;137478;-74
2023/11/10 03:53:16;;;;;;;7.90;5.60;;;;;;;5.89;80.00;99181.42;103168;1258;96975;-75
2023/11/10 03:56:03;;;;;;;10.30;5.00;;;;;;;5.89;80.16;99177.80;103218;1260;107245;-76
2023/11/10 03:58:51;;;;;;;8.20;5.00;;;;;;;5.91;80.22;99186.56;103337;1256;97220;-76
2023/11/10 04:01:26;;;;;;;;;;;;;;;5.94;80.19;99180.27;103359;1256;110853;-76
2023/11/10 04:03:57;;;;;;;8.50;5.70;;;;;;;5.95;80.23;99179.73;103228;1256;124144;-76
2023/11/10 04:06:45;;;;;;;7.60;5.20;;;;;;;5.96;80.26;99182.45;103395;1257;96520;-75
2023/11/10 04:09:24;;;;;;;8.40;5.70;;;;;;;5.96;80.44;99182.29;103277;1255;137112;-76
2023/11/10 04:12:04;;;;;;;10.10;5.50;;;;;;;5.93;80.46;99178.75;103273;1255;96371;-75
2023/11/10 04:14:40;;;;;;;8.70;5.30;;;;;;;5.89;80.65;99171.44;103292;1255;139553;-74
2023/11/10 04:17:27;;;;;;;9.10;4.90;;;;;;;5.93;80.58;99172.73;103322;1256;107678;-75
2023/11/10 04:20:00;;;;;;;13.80;5.50;;;;;;;5.95;80.73;99171.10;103421;1255;96482;-75
2023/11/10 04:22:42;;;;;;;12.90;6.00;;;;;;;5.97;80.83;99169.65;103322;1256;108303;-75
2023/11/10 04:25:10;;;;;;;17.00;6.60;;;;;;;5.98;80.84;99164.45;103313;1256;96486;-74
2023/11/10 04:28:00;;;;;;;12.60;5.90;;;;;;;5.98;80.91;99162.39;103173;1256;137306;-75
2023/11/10 04:30:39;;;;;;;18.10;6.00;;;;;;;5.95;81.08;99167.32;103202;1256;108668;-75
2023/11/10 04:33:09;;;;;;;19.10;5.70;;;;;;;5.93;81.19;99163.73;103146;1256;138008;-75
2023/11/10 04:35:51;;;;;;;13.70;5.30;;;;;;;5.95;81.32;99163.36;103245;1259;108719;-75
2023/11/10 04:38:31;;;;;;;14.80;6.10;;;;;;;5.97;81.32;99164.50;103563;1256;138014;-74
2023/11/10 04:41:10;;;;;;;11.50;5.90;;;;;;;5.98;81.21;99151.84;103321;1256;111817;-75
2023/11/10 04:43:37;;;;;;;8.50;5.50;;;;;;;6.01;81.47;99156.09;103240;1255;107314;-75
2023/11/10 04:46:25;;;;;;;12.70;5.30;;;;;;;5.99;81.33;99158.70;103188;1256;137599;-75
2023/11/10 04:49:13;;;;;;;11.30;5.30;;;;;;;5.99;81.43;99164.25;103318;1256;108802;-74
2023/11/10 04:52:00;;;;;;;10.70;5.80;;;;;;;5.99;81.47;99162.70;103271;1255;138161;-74
2023/11/10 04:54:28;;;;;;;11.50;5.30;;;;;;;6.00;81.25;99159.22;103341;1256;111094;-75
2023/11/10 04:56:55;;;;;;;16.20;5.60;;;;;;;6.03;81.47;99159.11;103143;1256;137969;-74
2023/11/10 04:59:26;;;;;;;14.60;5.70;;;;;;;6.06;81.36;99155.55;103306;1257;96464;-74
2023/11/10 05:01:57;;;;;;;9.20;5.80;;;;;;;6.07;81.43;99155.38;103339;1256;108748;-75
2023/11/10 05:04:39;;;;;;;14.40;5.70;;;;;;;6.06;81.25;99150.89;103344;1259;96432;-75
2023/11/10 05:07:08;;;;;;;8.90;5.20;;;;;;;6.04;81.68;99151.33;103300;1256;108310;-75
2023/11/10 05:09:47;;;;;;;10.00;5.70;;;;;;;6.03;81.74;99148.95;103059;1256;138525;-75
2023/11/10 05:12:18;;;;;;;7.60;5.30;;;;;;;6.02;81.78;99145.85;103237;1256;96449;-76
2023/11/10 05:15:06;;;;;;;10.90;5.40;;;;;;;6.06;81.57;99145.73;103182;1260;137520;-75
2023/11/10 05:17:34;;;;;;;7.40;5.00;;;;;;;6.08;81.50;99140.33;103323;1259;96455;-73
2023/11/10 05:20:16;;;;;;;7.90;5.40;;;;;;;6.10;81.60;99146.48;103347;1259;109697;-75
2023/11/10 05:22:53;;;;;;;10.10;5.70;;;;;;;6.09;81.73;99145.29;103271;1259;107270;-75
2023/11/10 05:25:41;;;;;;;8.10;5.40;;;;;;;6.06;81.78;99148.32;103362;1259;97071;-76
2023/11/10 05:28:18;;;;;;;7.80;4.70;;;;;;;6.05;82.00;99141.61;103248;1256;137897;-75
2023/11/10 05:31:00;;;;;;;9.60;4.80;;;;;;;6.05;82.23;99145.07;103298;1256;96585;-76
2023/11/10 05:33:41;;;;;;;8.60;5.30;;;;;;;6.08;82.19;99133.06;103177;1256;137484;-76
2023/11/10 05:36:12;;;;;;;8.70;5.20;;;;;;;6.11;81.96;99131.80;103378;1256;109049;-75
2023/11/10 05:38:58;;;;;;;;;;;;;;;6.13;82.22;99133.46;103561;1256;137328;-74
2023/11/10 05:41:36;;;;;;;9.70;5.30;;;;;;;6.13;82.27;99138.48;103388;1258;108302;-75
2023/11/10 05:44:23;;;;;;;;;;;;;;;6.10;82.07;99138.36;103202;1257;137941;-76
2023/11/10 05:47:10;;;;;;;6.70;5.10;;;;;;;6.09;82.13;99137.36;104194;1256;109309;-76
2023/11/10 05:49:49;;;;;;;11.60;5.10;;;;;;;6.11;82.27;99144.38;103264;1256;107882;-76
2023/11/10 05:52:27;;;;;;;9.00;5.40;;;;;;;6.16;82.29;99139.92;103186;1255;137980;-76
2023/11/10 05:55:16;;;;;;;10.10;5.40;;;;;;;6.19;82.28;99137.03;103273;1256;107774;-76
2023/11/10 05:57:48;;;;;;;9.30;5.60;;;;;;;6.22;82.09;99139.70;103180;1259;137513;-76
2023/11/10 06:00:25;;;;;;;9.30;5.90;;;;;;;6.24;82.03;99141.70;103342;1259;111451;-76
2023/11/10 06:03:14;;;;;;;12.20;5.70;;;;;;;6.24;82.08;99136.54;103101;1255;137138;-75
2023/11/10 06:05:56;;;;;;;8.90;5.00;;;;;;;6.25;82.24;99142.52;103263;1255;96983;-76
2023/11/10 06:08:25;;;;;;;10.20;4.30;;;;;;;6.27;82.17;99142.29;103518;1257;138642;-76
2023/11/10 06:11:21;;;;;;;8.20;5.00;;;;;;;6.31;82.12;99138.05;103272;1256;96777;-76
2023/11/10 06:14:10;;;;;;;8.10;4.80;;;;;;;6.35;81.88;99136.17;103287;1256;110954;-76
2023/11/10 06:16:57;;;;;;;9.30;5.30;;;;;;;6.40;81.83;99145.70;103209;1260;108072;-76
2023/11/10 06:19:25;;;;;;;8.80;4.80;;;;;;;6.41;81.73;99143.59;103199;1256;96589;-75
2023/11/10 06:22:07;;;;;;;8.20;4.70;;;;;;;6.42;81.55;99139.55;103468;1254;137680;-75
2023/11/10 06:24:54;;;;;;;7.10;4.50;;;;;;;6.45;81.54;99138.79;103358;1259;96446;-75
2023/11/10 06:27:44;;;;;;;8.60;4.50;;;;;;;6.50;81.38;99146.21;103532;1256;137576;-74
2023/11/10 06:30:32;;;;;;;10.20;4.90;;;;;;;6.53;81.34;99142.66;103439;1259;108822;-76
2023/11/10 06:32:59;;;;;;;8.90;5.30;;;;;;;6.57;81.23;99145.81;103225;1256;137641;-76
2023/11/10 06:35:26;;;;;;;8.80;5.20;;;;;;;6.59;80.91;99142.44;103248;1259;107308;-77
2023/11/10 06:38:12;;;;;;;;;;;;;;;6.59;80.98;99140.56;103613;1255;96496;-76
2023/11/10 06:41:00;;;;;;;7.70;4.90;;;;;;;6.58;80.96;99145.92;103661;1256;109507;-76
2023/11/10 06:43:36;;;;;;;12.50;5.00;;;;;;;6.59;81.00;99148.67;103222;1256;108562;-76
2023/11/10 06:46:26;;;;;;;10.40;4.60;;;;;;;6.60;80.91;99144.81;103091;1261;137096;-74
2023/11/10 06:48:54;;;;;;;9.10;4.50;;;;;;;6.64;80.87;99142.64;103288;1260;107916;-82
2023/11/10 06:51:22;;;;;;;9.30;4.40;;;;;;;6.69;80.68;99149.04;103871;1256;140202;-76
2023/11/10 06:53:57;;;;;;;10.40;4.70;;;;;;;6.74;80.57;99142.99;103312;1261;110238;-77
2023/11/10 06:56:44;;;;;;;9.00;5.20;;;;;;;6.80;80.35;99148.14;103128;1259;137710;-77
2023/11/10 06:59:15;;;;;;;10.80;5.00;;;;;;;6.83;80.26;99146.67;103271;1256;96830;-78
2023/11/10 07:02:03;;;;;;;10.60;4.60;;;;;;;6.83;80.02;99144.41;103232;1259;108121;-77
2023/11/10 07:04:31;;;;;;;7.60;4.30;;;;;;;6.85;80.06;99148.15;103166;1256;138180;-77
2023/11/10 07:06:59;;;;;;;8.80;4.30;;;;;;;6.90;79.85;99153.99;104004;1256;111173;-81
2023/11/10 07:09:26;;;;;;;9.10;4.00;;;;;;;6.99;79.71;99153.36;103423;1259;137817;-76
2023/11/10 07:12:06;;;;;;;9.70;4.50;;;;;;;7.05;79.43;99151.25;103328;1259;96454;-76
2023/11/10 07:14:33;;;;;;;8.30;4.90;;;;;;;7.10;79.21;99152.45;103085;1259;137468;-69
2023/11/10 07:17:21;;;;;;;9.50;4.80;;;;;;;7.15;79.00;99155.20;103271;1255;96451;-69
2023/11/10 07:19:48;;;;;;;8.00;4.70;;;;;;;7.17;78.82;99150.80;103359;1256;110678;-68
2023/11/10 07:22:26;;;;;;;8.90;4.70;;;;;;;7.18;78.63;99150.42;103195;1256;137266;-69
2023/11/10 07:24:55;;;;;;;10.10;4.70;;;;;;;7.16;78.60;99147.18;103300;1256;96482;-70
2023/11/10 07:27:25;;;;;;;7.40;4.50;;;;;;;7.14;78.56;99148.30;103554;1256;138509;-70
2023/11/10 07:30:13;;;;;;;8.80;4.60;;;;;;;7.15;78.53;99145.34;103190;1256;97951;-71
2023/11/10 07:32:43;;;;;;;8.30;4.80;;;;;;;7.17;78.59;99143.73;103309;1256;138001;-71
2023/11/10 07:35:21;;;;;;;10.20;4.70;;;;;;;7.21;78.53;99141.70;103205;1256;108265;-71
2023/11/10 07:37:48;;;;;;;10.60;4.60;;;;;;;7.23;78.25;99150.06;103232;1259;96470;-70
2023/11/10 07:40:17;;;;;;;10.60;5.50;;;;;;;7.25;78.32;99142.89;103178;1256;137363;-69
2023/11/10 07:42:47;;;;;;;6.60;4.50;;;;;;;7.29;78.31;99142.09;103286;1256;96538;-70
2023/11/10 07:45:35;;;;;;;8.60;5.00;;;;;;;7.30;78.01;99141.36;103137;1256;137388;-72
2023/11/10 07:48:14;;;;;;;10.40;4.70;;;;;;;7.32;78.02;99136.11;103364;1256;108313;-72
2023/11/10 07:51:03;;;;;;;8.00;4.50;;;;;;;7.35;77.96;99135.45;103049;1256;139967;-73
2023/11/10 07:53:49;;;;;;;9.10;4.30;;;;;;;7.41;77.72;99126.59;103150;1256;108170;-72
2023/11/10 07:56:16;;;;;;;10.70;4.20;;;;;;;7.48;77.51;99123.58;103230;1256;98408;-69
2023/11/10 07:59:04;;;;;;;10.10;4.80;;;;;;;7.53;77.40;99123.89;103277;1257;109747;-72
2023/11/10 08:01:52;;;;;;;8.80;4.50;;;;;;;7.60;77.11;99126.08;103148;1256;106896;-71
2023/11/10 08:04:38;;;;;;;;;;;;;;;7.64;76.99;99126.23;102899;1260;137265;-71
2023/11/10 08:07:26;;;;;;;7.50;4.80;;;;;;;7.66;76.91;99131.88;103881;1256;520789;-70
2023/11/10 08:10:16;;;;;;;14.90;4.20;;;;;;;7.69;76.89;99132.08;103035;1260;137775;-71
2023/11/10 08:12:55;;;;;;;9.20;4.60;;;;;;;7.73;76.61;99134.55;103298;1256;110003;-71
2023/11/10 08:15:31;;;;;;;7.50;4.00;;;;;;;7.78;76.57;99131.09;103120;1256;138011;-71
2023/11/10 08:18:18;;;;;;;8.70;4.30;;;;;;;7.85;76.45;99135.09;103287;1256;96467;-73
2023/11/10 08:20:47;;;;;;;8.40;4.30;;;;;;;7.94;76.10;99138.78;103096;1256;137904;-70
2023/11/10 08:23:22;;;;;;;9.90;4.00;;;;;;;8.02;75.81;99132.00;103315;1256;96479;-69
2023/11/10 08:25:50;;;;;;;6.90;4.60;;;;;;;8.12;75.38;99139.27;103178;1256;109766;-70
2023/11/10 08:28:20;;;;;;;10.20;4.70;;;;;;;8.22;75.38;99135.04;103292;1256;137510;-70
2023/11/10 08:30:53;;;;;;;7.90;4.60;;;;;;;8.35;74.74;99134.02;102520;1259;1003502;-70
2023/11/10 08:33:20;;;;;;;8.70;4.50;;;;;;;8.53;74.51;99139.51;102454;1256;1003356;-70
2023/11/10 08:35:48;;;;;;;5.80;3.90;;;;;;;8.69;74.13;99139.04;103263;1256;97243;-70
2023/11/10 08:38:36;;;;;;;8.50;4.60;;;;;;;8.79;73.46;99137.38;103131;1256;137266;-68
2023/11/10 08:41:23;;;;;;;9.00;4.60;;;;;;;8.90;73.33;99145.39;103085;1259;105874;-70
2023/11/10 08:43:51;;;;;;;9.10;5.10;;;;;;;9.03;72.67;99142.95;103149;1256;96895;-71
2023/11/10 08:46:18;;;;;;;7.30;4.60;;;;;;;9.16;71.96;99137.55;103143;1259;137218;-71
2023/11/10 08:48:55;;;;;;;10.00;4.30;;;;;;;9.29;71.67;99131.73;103233;1256;96594;-70
2023/11/10 08:51:33;;;;;;;7.10;4.00;;;;;;;9.50;71.85;99125.23;103099;1256;137319;-69
2023/11/10 08:54:04;;;;;;;9.30;5.00;;;;;;;9.68;71.29;99125.27;103051;1260;108040;-69
2023/11/10 08:56:31;;;;;;;8.50;4.80;;;;;;;9.82;70.37;99129.83;103000;1257;96454;-70
2023/11/10 08:59:01;;;;;;;8.10;4.60;;;;;;;9.93;70.25;99128.96;103115;1259;106955;-68
2023/11/10 09:01:28;;;;;;;7.40;5.00;;;;;;;10.00;69.80;99130.70;103079;1256;96568;-69
2023/11/10 09:03:55;;;;;;;9.70;5.10;;;;;;;10.08;69.73;99127.91;103262;1256;137548;-67
2023/11/10 09:06:31;;;;;;;15.80;5.10;;;;;;;10.09;68.79;99135.15;103177;1259;107773;-68
2023/11/10 09:08:59;;;;;;;8.30;4.90;;;;;;;10.07;69.12;99131.05;104075;1255;138999;-68
2023/11/10 09:11:26;;;;;;;7.10;5.00;;;;;;;10.12;69.17;99131.51;103209;1255;109788;-68
2023/11/10 09:13:54;;;;;;;8.60;5.10;;;;;;;10.27;69.29;99135.84;103566;1257;96527;-68
2023/11/10 09:16:21;;;;;;;9.00;4.70;;;;;;;10.48;68.64;99139.89;103196;1256;137389;-67
2023/11/10 09:18:49;;;;;;;9.00;4.70;;;;;;;10.48;68.00;99142.33;103208;1256;108106;-67
2023/11/10 09:21:16;;;;;;;9.70;5.10;;;;;;;10.48;67.79;99144.19;103343;1255;138357;-68
2023/11/10 09:23:43;;;;;;;8.70;5.30;;;;;;;10.68;67.85;99139.55;103241;1256;109535;-68
2023/11/10 09:26:12;;;;;;;9.00;5.30;;;;;;;10.96;67.43;99129.98;103395;1256;96486;-68
2023/11/10 09:28:39;;;;;;;9.40;5.40;;;;;;;11.11;66.99;99130.75;103074;1256;137891;-67
2023/11/10 09:31:07;;;;;;;9.30;4.60;;;;;;;11.21;66.32;99130.05;103083;1261;108165;-69
2023/11/10 09:33:34;;;;;;;8.20;5.00;;;;;;;11.34;66.36;99128.17;103167;1256;137615;-68
2023/11/10 09:36:02;;;;;;;8.90;4.60;;;;;;;11.61;66.20;99123.20;103251;1257;108344;-67
2023/11/10 09:38:29;;;;;;;8.80;5.10;;;;;;;11.99;65.71;99120.61;103324;1255;97215;-68
2023/11/10 09:40:58;;;;;;;10.20;5.40;;;;;;;12.34;65.26;99122.84;103235;1256;110884;-68
2023/11/10 09:43:27;;;;;;;13.40;5.50;;;;;;;12.64;64.23;99115.33;103244;1256;108040;-68
2023/11/10 09:45:57;;;;;;;12.60;5.60;;;;;;;12.89;62.89;99108.64;103195;1256;137876;-68
2023/11/10 09:48:25;;;;;;;8.80;5.20;;;;;;;13.14;62.56;99105.91;103313;1259;107522;-68
2023/11/10 09:50:54;;;;;;;11.70;5.10;;;;;;;13.38;61.25;99098.33;103062;1259;137652;-68
2023/11/10 09:53:25;;;;;;;10.30;5.60;;;;;;;13.65;60.96;99094.20;103272;1256;109746;-68
2023/11/10 09:55:54;;;;;;;7.10;5.00;;;;;;;13.84;60.00;99090.34;103355;1256;107039;-67
2023/11/10 09:58:23;;;;;;;8.70;5.30;;;;;;;13.94;58.49;99083.99;103371;1256;138280;-68
2023/11/10 10:00:54;;;;;;;9.10;5.40;;;;;;;14.00;58.45;99073.27;103185;1256;109726;-66
2023/11/10 10:03:21;;;;;;;11.10;6.10;;;;;;;14.16;58.22;99074.49;103270;1259;137467;-68
2023/11/10 10:05:49;;;;;;;9.60;5.50;;;;;;;14.12;56.13;99078.54;103266;1256;110463;-69
2023/11/10 10:08:20;;;;;;;12.70;5.80;;;;;;;13.78;56.59;99075.70;103210;1256;107391;-68
2023/11/10 10:10:49;;;;;;;13.00;6.20;;;;;;;13.40;57.06;99066.27;103785;1256;137430;-68
2023/11/10 10:13:17;;;;;;;10.30;5.60;;;;;;;13.18;57.73;99065.00;103402;1259;107860;-68
2023/11/10 10:15:44;;;;;;;11.60;6.30;;;;;;;13.09;57.80;99060.15;103207;1259;137755;-68
2023/11/10 10:18:14;;;;;;;8.40;5.80;;;;;;;13.09;58.58;99047.02;103302;1257;110028;-68
2023/11/10 10:20:41;;;;;;;12.00;6.40;;;;;;;13.24;58.45;99056.40;103094;1256;137664;-67
2023/11/10 10:23:09;;;;;;;15.40;5.60;;;;;;;13.26;58.60;99056.63;103288;1256;96486;-69
2023/11/10 10:25:39;;;;;;;9.80;5.60;;;;;;;13.24;58.49;99047.83;103254;1256;108553;-69
2023/11/10 10:28:08;;;;;;;10.60;6.00;;;;;;;13.20;58.84;99047.20;103155;1256;138586;-67
2023/11/10 10:30:36;;;;;;;11.20;5.50;;;;;;;13.11;58.66;99044.27;103211;1256;110770;-68
2023/11/10 10:33:05;;;;;;;12.00;5.60;;;;;;;13.00;59.10;99045.52;103078;1259;138031;-66
2023/11/10 10:35:33;;;;;;;11.40;6.20;;;;;;;12.88;59.38;99044.98;103364;1256;96445;-68
2023/11/10 10:38:22;;;;;;;;;;;;;;;12.74;59.46;99043.41;103244;1257;107895;-67
2023/11/10 10:40:55;;;;;;;10.90;6.10;;;;;;;12.55;59.63;99048.53;103428;1256;123920;-66
2023/11/10 10:43:28;;;;;;;10.20;5.70;;;;;;;12.44;60.03;99035.80;103362;1256;109704;-66
2023/11/10 10:46:00;;;;;;;11.20;6.10;;;;;;;12.44;60.57;99025.69;102553;1260;138819;-67
2023/11/10 10:48:30;;;;;;;11.00;6.30;;;;;;;12.55;60.91;99021.85;103090;1259;96335;-67
2023/11/10 10:50:58;;;;;;;14.10;6.30;;;;;;;12.68;60.70;99023.34;103200;1256;137667;-66
2023/11/10 10:53:26;;;;;;;11.60;5.90;;;;;;;12.83;60.83;99019.13;103204;1256;96536;-66
2023/11/10 10:55:57;;;;;;;9.10;5.20;;;;;;;12.99;60.15;99025.34;103206;1259;110719;-73
2023/11/10 10:58:30;;;;;;;10.60;5.80;;;;;;;13.08;59.60;99025.08;102924;1256;137511;-71
2023/11/10 11:01:08;;;;;;;13.40;6.00;;;;;;;13.13;59.73;99021.98;103073;1257;96599;-73
2023/11/10 11:03:54;;;;;;;11.50;6.20;;;;;;;13.19;59.20;99021.48;102803;1256;137566;-71
2023/11/10 11:06:43;;;;;;;13.10;5.50;;;;;;;13.19;59.58;99016.59;102884;1259;96544;-72
2023/11/10 11:09:33;;;;;;;10.10;5.90;;;;;;;13.16;59.19;99015.91;102766;1257;137764;-73
2023/11/10 11:12:23;;;;;;;12.70;6.10;;;;;;;13.04;58.78;99014.54;102802;1255;106932;-67
2023/11/10 11:15:17;;;;;;;10.00;6.50;;;;;;;12.92;59.31;99016.13;102775;1256;137983;-71
2023/11/10 11:18:03;;;;;;;9.90;6.00;;;;;;;12.87;59.47;99017.48;102888;1257;109856;-71
2023/11/10 11:20:40;;;;;;;10.80;5.70;;;;;;;12.79;59.14;99019.92;102666;1259;137974;-68
2023/11/10 11:23:28;;;;;;;15.60;6.10;;;;;;;12.73;59.34;99012.76;103750;1257;109830;-71
2023/11/10 11:26:04;;;;;;;11.00;5.70;;;;;;;12.70;59.92;99008.55;102833;1256;107887;-71
2023/11/10 11:28:37;;;;;;;14.00;6.20;;;;;;;12.76;59.98;99012.10;102881;1256;137925;-71
2023/11/10 11:31:22;;;;;;;7.60;5.60;;;;;;;12.79;59.78;99010.71;102740;1254;108167;-72
2023/11/10 11:33:52;;;;;;;10.40;5.70;;;;;;;12.79;59.79;99012.44;103310;1259;137508;-70
2023/11/10 11:36:34;;;;;;;9.90;5.70;;;;;;;12.80;59.61;99011.52;102899;1259;111298;-71
2023/11/10 11:39:19;;;;;;;8.90;5.10;;;;;;;12.74;59.38;99005.07;102722;1259;137697;-73
2023/11/10 11:42:02;;;;;;;10.80;6.10;;;;;;;12.67;59.62;98995.14;103099;1256;96474;-72
2023/11/10 11:44:34;;;;;;;8.90;5.80;;;;;;;12.66;59.68;98997.35;102848;1256;108330;-71
2023/11/10 11:47:22;;;;;;;10.00;5.30;;;;;;;12.64;59.95;98989.06;102784;1259;96457;-71
2023/11/10 11:50:05;;;;;;;8.20;5.20;;;;;;;12.61;59.78;98991.19;102746;1256;110605;-71
2023/11/10 11:52:34;;;;;;;7.70;5.40;;;;;;;12.59;60.13;98985.90;103813;1254;137679;-71
2023/11/10 11:55:01;;;;;;;9.90;5.90;;;;;;;12.61;60.17;98987.67;104084;1257;95789;-72
2023/11/10 11:57:32;;;;;;;13.00;5.70;;;;;;;12.60;60.22;98984.77;103023;1256;137423;-71
2023/11/10 12:00:05;;;;;;;9.60;5.30;;;;;;;12.62;60.10;98991.83;103159;1260;96521;-71
2023/11/10 12:02:41;;;;;;;11.20;5.90;;;;;;;12.57;60.01;98997.54;103218;1259;137466;-70
2023/11/10 12:05:13;;;;;;;12.50;6.30;;;;;;;12.50;60.23;99001.09;103180;1259;107585;-68